createdAt,value
2019-02-20T10:14:36.685Z,5.90
2019-02-20T10:17:06.694Z,6.22
2019-02-20T10:19:36.996Z,6.42
2019-02-20T10:22:07.408Z,5.72
2019-02-20T10:24:39.161Z,7.30
2019-02-20T10:27:09.134Z,5.65
2019-02-20T10:29:40.554Z,5.45
2019-02-20T10:32:10.924Z,5.87
2019-02-20T10:34:41.285Z,6.15
2019-02-20T10:37:11.742Z,6.10
2019-02-20T10:39:41.866Z,5.62
2019-02-20T10:42:12.165Z,6.80
2019-02-20T10:44:42.557Z,5.83
2019-02-20T10:47:14.164Z,5.65
2019-02-20T10:49:44.544Z,5.78
2019-02-20T10:52:14.602Z,5.83
2019-02-20T10:54:45.638Z,4.83
2019-02-20T10:57:16.136Z,4.83
2019-02-20T10:59:46.214Z,5.70
2019-02-20T11:02:16.769Z,5.20
2019-02-20T11:04:47.373Z,5.10
2019-02-20T11:07:17.468Z,6.55
2019-02-20T11:09:47.520Z,6.20
2019-02-20T11:12:17.573Z,7.10
2019-02-20T11:14:48.994Z,8.85
2019-02-20T11:17:19.785Z,7.67
2019-02-20T11:19:49.887Z,6.33
2019-02-20T11:22:20.632Z,6.37
2019-02-20T11:24:50.800Z,4.70
2019-02-20T11:27:21.109Z,5.20
2019-02-20T11:29:51.446Z,5.85
2019-02-20T11:32:21.875Z,4.70
2019-02-20T11:34:51.959Z,5.47
2019-02-20T11:37:23.134Z,5.75
2019-02-20T11:39:54.041Z,5.15
2019-02-20T11:42:24.259Z,5.53
2019-02-20T11:44:54.596Z,7.00
2019-02-20T11:47:24.685Z,8.58
2019-02-20T11:49:54.711Z,6.95
2019-02-20T11:52:24.712Z,6.72
2019-02-20T11:54:55.039Z,6.87
2019-02-20T11:57:25.071Z,6.97
2019-02-20T11:59:55.398Z,6.33
2019-02-20T12:02:25.556Z,5.33
2019-02-20T12:04:55.633Z,4.95
2019-02-20T12:07:25.921Z,5.05
2019-02-20T12:09:56.289Z,4.90
2019-02-20T12:12:26.658Z,4.58
2019-02-20T12:14:56.997Z,5.85
2019-02-20T12:17:27.324Z,6.55
2019-02-20T12:19:57.425Z,4.80
2019-02-20T12:22:27.447Z,4.87
2019-02-20T12:24:59.255Z,4.90
2019-02-20T12:27:29.411Z,4.42
2019-02-20T12:29:59.502Z,4.30
2019-02-20T12:32:30.951Z,5.45
2019-02-20T12:35:01.350Z,4.45
2019-02-20T12:37:31.465Z,4.53
2019-02-20T12:40:01.495Z,4.35
2019-02-20T12:42:32.658Z,4.65
2019-02-20T12:45:02.685Z,5.70
2019-02-20T12:47:33.983Z,5.60
2019-02-20T12:50:06.043Z,6.00
2019-02-20T12:52:36.151Z,5.60
2019-02-20T12:55:07.318Z,5.22
2019-02-20T12:57:37.405Z,10.18
2019-02-20T13:00:12.920Z,7.47
2019-02-20T13:02:43.422Z,5.80
2019-02-20T13:05:13.705Z,6.75
2019-02-20T13:07:43.922Z,6.95
2019-02-20T13:10:13.944Z,6.83
2019-02-20T13:12:44.298Z,5.80
2019-02-20T13:15:14.393Z,7.37
2019-02-20T13:17:44.693Z,6.72
2019-02-20T13:20:15.403Z,6.03
2019-02-20T13:22:45.742Z,5.50
2019-02-20T13:25:15.908Z,5.22
2019-02-20T13:27:45.908Z,4.25
2019-02-20T13:30:16.538Z,4.28
2019-02-20T13:32:46.976Z,4.10
2019-02-20T13:35:18.658Z,3.58
2019-02-20T13:37:49.770Z,4.25
2019-02-20T13:40:20.121Z,3.52
2019-02-20T13:42:50.285Z,3.80
2019-02-20T13:45:20.584Z,3.45
2019-02-20T13:47:50.667Z,3.62
2019-02-20T13:50:20.930Z,3.72
2019-02-20T13:52:52.592Z,4.03
2019-02-20T13:55:23.841Z,3.98
2019-02-20T13:57:53.827Z,3.85
2019-02-20T14:00:24.121Z,3.98
2019-02-20T14:02:54.449Z,5.08
2019-02-20T14:05:25.033Z,4.37
2019-02-20T14:07:56.687Z,3.70
2019-02-20T14:10:26.694Z,4.03
2019-02-20T14:12:56.972Z,3.40
2019-02-20T14:15:27.288Z,4.25
2019-02-20T14:17:57.385Z,3.80
2019-02-20T14:20:27.378Z,3.58
2019-02-20T14:22:57.803Z,3.98
2019-02-20T14:25:28.149Z,3.50
2019-02-20T14:27:58.533Z,3.92
2019-02-20T14:30:28.936Z,3.92
2019-02-20T14:33:00.825Z,3.98
2019-02-20T14:35:31.173Z,4.00
2019-02-20T14:38:01.245Z,5.65
2019-02-20T14:40:31.595Z,8.30
2019-02-20T14:43:01.710Z,21.15
2019-02-20T14:45:31.709Z,6.33
2019-02-20T14:48:02.464Z,7.83
2019-02-20T14:50:32.544Z,4.67
2019-02-20T14:53:02.714Z,4.42
2019-02-20T14:55:32.967Z,4.70
2019-02-20T14:58:03.937Z,4.45
2019-02-20T15:00:34.220Z,4.87
2019-02-20T15:03:05.217Z,4.17
2019-02-20T15:05:35.533Z,3.80
2019-02-20T15:08:05.718Z,3.77
2019-02-20T15:10:35.706Z,3.80
2019-02-20T15:13:05.777Z,4.00
2019-02-20T15:15:35.817Z,3.80
2019-02-20T15:18:06.073Z,3.70
2019-02-20T15:20:36.415Z,4.15
2019-02-20T15:23:06.905Z,4.67
2019-02-20T15:25:37.239Z,4.45
2019-02-20T15:28:07.596Z,6.37
2019-02-20T15:30:38.379Z,4.92
2019-02-20T15:33:08.376Z,5.97
2019-02-20T15:35:38.662Z,10.90
2019-02-20T15:38:09.367Z,5.50
2019-02-20T15:40:39.698Z,5.25
2019-02-20T15:43:10.712Z,7.08
2019-02-20T15:45:41.522Z,6.10
2019-02-20T15:48:11.612Z,5.20
2019-02-20T15:50:41.872Z,4.85
2019-02-20T15:53:12.136Z,6.05
2019-02-20T15:55:42.395Z,6.12
2019-02-20T15:58:12.494Z,6.45
2019-02-20T16:00:44.345Z,4.87
2019-02-20T16:03:14.264Z,5.22
2019-02-20T16:05:44.273Z,4.20
2019-02-20T16:08:14.525Z,4.78
2019-02-20T16:10:45.558Z,3.90
2019-02-20T16:13:15.902Z,3.27
2019-02-20T16:15:45.997Z,3.30
2019-02-20T16:18:16.280Z,3.30
2019-02-20T16:20:48.110Z,3.20
2019-02-20T16:23:18.447Z,3.55
2019-02-20T16:25:48.535Z,2.92
2019-02-20T16:28:18.910Z,2.52
2019-02-20T16:30:48.905Z,2.65
2019-02-20T16:33:18.907Z,2.33
2019-02-20T16:35:50.178Z,2.60
2019-02-20T16:38:22.003Z,3.10
2019-02-20T16:40:52.969Z,3.50
2019-02-20T16:43:23.297Z,3.72
2019-02-20T16:45:53.300Z,3.47
2019-02-20T16:48:23.340Z,3.60
2019-02-20T16:50:53.445Z,2.75
2019-02-20T16:53:23.469Z,2.92
2019-02-20T16:55:55.636Z,2.50
2019-02-20T16:58:25.783Z,3.22
2019-02-20T17:00:56.322Z,2.70
2019-02-20T17:03:26.619Z,4.10
2019-02-20T17:05:56.957Z,3.08
2019-02-20T17:08:27.029Z,3.10
2019-02-20T17:10:57.626Z,2.90
2019-02-20T17:13:27.616Z,3.83
2019-02-20T17:15:57.620Z,3.22
2019-02-20T17:18:27.912Z,3.15
2019-02-20T17:20:57.986Z,2.98
2019-02-20T17:23:27.992Z,2.80
2019-02-20T17:25:58.653Z,3.70
2019-02-20T17:28:28.742Z,5.20
2019-02-20T17:31:00.421Z,4.00
2019-02-20T17:33:30.515Z,4.67
2019-02-20T17:36:00.531Z,4.90
2019-02-20T17:38:31.264Z,3.50
2019-02-20T17:41:01.606Z,3.50
2019-02-20T17:43:31.927Z,3.55
2019-02-20T17:46:02.324Z,4.62
2019-02-20T17:48:33.512Z,5.65
2019-02-20T17:51:03.552Z,6.55
2019-02-20T17:53:34.103Z,6.28
2019-02-20T17:56:04.179Z,5.03
2019-02-20T17:58:34.297Z,5.17
2019-02-20T18:01:06.005Z,6.37
2019-02-20T18:03:36.360Z,4.80
2019-02-20T18:06:07.756Z,4.95
2019-02-20T18:08:38.099Z,4.95
2019-02-20T18:11:10.654Z,4.85
2019-02-20T18:13:41.271Z,4.10
2019-02-20T18:16:11.268Z,4.05
2019-02-20T18:18:41.284Z,4.03
2019-02-20T18:21:11.576Z,4.83
2019-02-20T18:23:41.647Z,4.58
2019-02-20T18:26:11.988Z,3.75
2019-02-20T18:28:42.077Z,4.62
2019-02-20T18:31:12.584Z,4.35
2019-02-20T18:33:42.765Z,5.35
2019-02-20T18:36:12.814Z,4.80
2019-02-20T18:38:42.835Z,4.30
2019-02-20T18:41:14.501Z,4.65
2019-02-20T18:43:44.761Z,4.75
2019-02-20T18:46:15.676Z,4.30
2019-02-20T18:48:45.938Z,4.47
2019-02-20T18:51:16.028Z,5.37
2019-02-20T18:53:46.066Z,5.65
2019-02-20T18:56:16.122Z,5.50
2019-02-20T18:58:48.889Z,6.03
2019-02-20T19:01:18.919Z,5.10
2019-02-20T19:03:49.154Z,4.85
2019-02-20T19:06:19.333Z,6.03
2019-02-20T19:08:52.219Z,5.62
2019-02-20T19:11:36.340Z,5.85
2019-02-20T19:14:12.471Z,6.10
2019-02-20T19:16:50.951Z,6.78
2019-02-20T19:19:40.948Z,6.28
2019-02-20T19:22:44.644Z,6.15
2019-02-20T19:25:40.046Z,5.62
2019-02-20T19:28:24.060Z,5.70
2019-02-20T19:31:17.805Z,7.28
2019-02-20T19:34:21.221Z,5.95
2019-02-20T19:37:24.620Z,6.55
2019-02-20T19:40:06.918Z,5.90
2019-02-20T19:43:02.350Z,7.35
2019-02-20T19:45:40.460Z,7.05
2019-02-20T19:48:36.449Z,5.62
2019-02-20T19:51:39.542Z,7.37
2019-02-20T19:54:29.530Z,5.83
2019-02-20T19:57:15.280Z,5.85
2019-02-20T20:00:25.254Z,4.67
2019-02-20T20:03:01.659Z,4.47
2019-02-20T20:05:53.163Z,5.53
2019-02-20T20:08:29.239Z,5.28
2019-02-20T20:11:07.299Z,6.00
2019-02-20T20:14:00.310Z,6.53
2019-02-20T20:16:57.380Z,4.95
2019-02-20T20:19:45.305Z,5.37
2019-02-20T20:22:38.201Z,5.20
2019-02-20T20:25:17.460Z,5.42
2019-02-20T20:27:55.507Z,5.53
2019-02-20T20:30:55.470Z,5.60
2019-02-20T20:33:46.108Z,4.80
2019-02-20T20:36:19.781Z,5.65
2019-02-20T20:39:07.855Z,5.30
2019-02-20T20:42:12.452Z,5.60
2019-02-20T20:44:56.983Z,5.70
2019-02-20T20:47:37.119Z,4.50
2019-02-20T20:50:23.620Z,5.12
2019-02-20T20:52:56.919Z,4.53
2019-02-20T20:55:46.785Z,5.00
2019-02-20T20:58:26.946Z,5.33
2019-02-20T21:01:20.589Z,5.25
2019-02-20T21:04:32.261Z,5.12
2019-02-20T21:07:27.091Z,6.05
2019-02-20T21:10:00.961Z,4.87
2019-02-20T21:13:12.126Z,5.87
2019-02-20T21:16:04.918Z,5.17
2019-02-20T21:19:22.374Z,5.80
2019-02-20T21:22:13.567Z,5.55
2019-02-20T21:25:07.885Z,5.67
2019-02-20T21:27:51.981Z,5.80
2019-02-20T21:30:27.207Z,5.45
2019-02-20T21:33:06.363Z,6.00
2019-02-20T21:35:49.824Z,6.25
2019-02-20T21:38:53.542Z,5.40
2019-02-20T21:41:40.640Z,4.60
2019-02-20T21:44:27.391Z,5.37
2019-02-20T21:47:26.799Z,5.83
2019-02-20T21:50:23.112Z,5.25
2019-02-20T21:53:00.845Z,5.85
2019-02-20T21:56:01.646Z,4.72
2019-02-20T21:58:56.073Z,4.47
2019-02-20T22:01:49.243Z,4.83
2019-02-20T22:04:28.164Z,4.20
2019-02-20T22:07:15.170Z,4.30
2019-02-20T22:09:58.389Z,4.28
2019-02-20T22:12:31.031Z,4.00
2019-02-20T22:15:10.070Z,3.33
2019-02-20T22:18:08.872Z,3.52
2019-02-20T22:21:21.251Z,3.62
2019-02-20T22:24:18.893Z,3.40
2019-02-20T22:27:11.848Z,4.08
2019-02-20T22:30:20.545Z,3.50
2019-02-20T22:33:08.797Z,3.72
2019-02-20T22:36:24.595Z,4.53
2019-02-20T22:39:12.912Z,3.27
2019-02-20T22:42:15.116Z,3.80
2019-02-20T22:45:20.198Z,3.67
2019-02-20T22:47:57.733Z,3.85
2019-02-20T22:50:48.861Z,4.25
2019-02-20T22:53:58.333Z,3.60
2019-02-20T22:56:56.222Z,4.15
2019-02-20T23:00:02.689Z,4.03
2019-02-20T23:02:46.577Z,4.00
2019-02-20T23:05:42.563Z,4.03
2019-02-20T23:08:18.584Z,3.90
2019-02-20T23:11:11.458Z,3.55
2019-02-20T23:14:10.298Z,3.75
2019-02-20T23:16:40.552Z,3.65
2019-02-20T23:19:10.839Z,4.33
2019-02-20T23:21:40.914Z,3.47
2019-02-20T23:24:11.182Z,4.60
2019-02-20T23:26:41.541Z,4.80
2019-02-20T23:29:11.846Z,5.22
2019-02-20T23:31:41.934Z,4.70
2019-02-20T23:34:12.499Z,5.60
2019-02-20T23:36:42.821Z,5.33
2019-02-20T23:39:13.274Z,5.80
2019-02-20T23:41:44.122Z,6.95
2019-02-20T23:44:14.161Z,6.67
2019-02-20T23:46:44.185Z,6.58
2019-02-20T23:49:14.205Z,7.78
2019-02-20T23:51:44.200Z,8.25
2019-02-20T23:54:14.492Z,8.03
2019-02-20T23:56:44.606Z,8.48
2019-02-20T23:59:14.860Z,8.80
